sensor_id;sensor_type;location;lat;lon;timestamp;P1;durP1;ratioP1;P2;durP2;ratioP2
34064;SDS011;20339;49.754;20.158;2022-10-31T00:01:58;8.10;;;3.00;;
34064;SDS011;20339;49.754;20.158;2022-10-31T00:04:29;8.20;;;3.60;;
34064;SDS011;20339;49.754;20.158;2022-10-31T00:07:00;9.90;;;3.50;;
34064;SDS011;20339;49.754;20.158;2022-10-31T00:09:31;9.10;;;3.30;;
34064;SDS011;20339;49.754;20.158;2022-10-31T00:12:02;9.50;;;2.90;;
34064;SDS011;20339;49.754;20.158;2022-10-31T00:14:33;10.50;;;3.10;;
34064;SDS011;20339;49.754;20.158;2022-10-31T00:17:04;5.30;;;2.70;;
34064;SDS011;20339;49.754;20.158;2022-10-31T00:19:35;7.70;;;3.10;;
34064;SDS011;20339;49.754;20.158;2022-10-31T00:22:06;8.40;;;3.20;;
34064;SDS011;20339;49.754;20.158;2022-10-31T00:24:38;6.60;;;2.90;;
34064;SDS011;20339;49.754;20.158;2022-10-31T00:27:09;5.70;;;3.10;;
34064;SDS011;20339;49.754;20.158;2022-10-31T00:29:40;7.60;;;3.20;;
34064;SDS011;20339;49.754;20.158;2022-10-31T00:32:11;9.90;;;3.10;;
34064;SDS011;20339;49.754;20.158;2022-10-31T00:34:42;6.90;;;3.20;;
34064;SDS011;20339;49.754;20.158;2022-10-31T00:37:13;10.10;;;4.00;;
34064;SDS011;20339;49.754;20.158;2022-10-31T00:39:44;9.30;;;3.40;;
34064;SDS011;20339;49.754;20.158;2022-10-31T00:42:17;6.50;;;2.90;;
34064;SDS011;20339;49.754;20.158;2022-10-31T00:44:48;7.10;;;3.00;;
34064;SDS011;20339;49.754;20.158;2022-10-31T00:47:19;8.90;;;3.10;;
34064;SDS011;20339;49.754;20.158;2022-10-31T00:49:50;10.40;;;3.00;;
34064;SDS011;20339;49.754;20.158;2022-10-31T00:52:21;7.60;;;3.40;;
34064;SDS011;20339;49.754;20.158;2022-10-31T00:54:52;8.10;;;3.10;;
34064;SDS011;20339;49.754;20.158;2022-10-31T00:57:24;8.60;;;2.80;;
34064;SDS011;20339;49.754;20.158;2022-10-31T00:59:55;9.80;;;3.40;;
34064;SDS011;20339;49.754;20.158;2022-10-31T01:02:26;6.50;;;3.40;;
34064;SDS011;20339;49.754;20.158;2022-10-31T01:04:57;6.50;;;3.30;;
34064;SDS011;20339;49.754;20.158;2022-10-31T01:07:28;6.70;;;2.90;;
34064;SDS011;20339;49.754;20.158;2022-10-31T01:09:59;7.90;;;3.40;;
34064;SDS011;20339;49.754;20.158;2022-10-31T01:12:30;8.50;;;3.40;;
34064;SDS011;20339;49.754;20.158;2022-10-31T01:15:08;8.90;;;2.70;;
34064;SDS011;20339;49.754;20.158;2022-10-31T01:17:40;6.30;;;3.10;;
34064;SDS011;20339;49.754;20.158;2022-10-31T01:20:12;7.00;;;2.40;;
34064;SDS011;20339;49.754;20.158;2022-10-31T01:22:44;7.80;;;3.10;;
34064;SDS011;20339;49.754;20.158;2022-10-31T01:25:15;7.80;;;2.70;;
34064;SDS011;20339;49.754;20.158;2022-10-31T01:27:46;7.80;;;2.80;;
34064;SDS011;20339;49.754;20.158;2022-10-31T01:30:17;6.50;;;2.20;;
34064;SDS011;20339;49.754;20.158;2022-10-31T01:32:48;4.40;;;2.10;;
34064;SDS011;20339;49.754;20.158;2022-10-31T01:35:20;6.80;;;2.40;;
34064;SDS011;20339;49.754;20.158;2022-10-31T01:37:50;5.10;;;2.30;;
34064;SDS011;20339;49.754;20.158;2022-10-31T01:40:21;6.10;;;2.80;;
34064;SDS011;20339;49.754;20.158;2022-10-31T01:42:53;9.80;;;2.50;;
34064;SDS011;20339;49.754;20.158;2022-10-31T01:45:24;8.30;;;2.50;;
34064;SDS011;20339;49.754;20.158;2022-10-31T01:47:55;6.20;;;2.70;;
34064;SDS011;20339;49.754;20.158;2022-10-31T01:50:28;6.90;;;2.80;;
34064;SDS011;20339;49.754;20.158;2022-10-31T01:53:02;7.00;;;2.50;;
34064;SDS011;20339;49.754;20.158;2022-10-31T01:55:38;6.60;;;2.50;;
34064;SDS011;20339;49.754;20.158;2022-10-31T01:58:13;7.30;;;2.90;;
34064;SDS011;20339;49.754;20.158;2022-10-31T02:00:48;7.20;;;2.80;;
34064;SDS011;20339;49.754;20.158;2022-10-31T02:03:25;7.80;;;2.90;;
34064;SDS011;20339;49.754;20.158;2022-10-31T02:05:57;8.10;;;3.20;;
34064;SDS011;20339;49.754;20.158;2022-10-31T02:08:30;11.60;;;3.60;;
34064;SDS011;20339;49.754;20.158;2022-10-31T02:11:03;5.50;;;2.60;;
34064;SDS011;20339;49.754;20.158;2022-10-31T02:13:35;8.50;;;3.00;;
34064;SDS011;20339;49.754;20.158;2022-10-31T02:16:10;6.40;;;2.90;;
34064;SDS011;20339;49.754;20.158;2022-10-31T02:18:41;5.00;;;2.50;;
34064;SDS011;20339;49.754;20.158;2022-10-31T02:21:14;8.90;;;2.70;;
34064;SDS011;20339;49.754;20.158;2022-10-31T02:24:05;6.90;;;2.30;;
34064;SDS011;20339;49.754;20.158;2022-10-31T02:27:07;7.00;;;2.50;;
34064;SDS011;20339;49.754;20.158;2022-10-31T02:32:41;5.90;;;2.70;;
34064;SDS011;20339;49.754;20.158;2022-10-31T02:35:23;8.20;;;2.90;;
34064;SDS011;20339;49.754;20.158;2022-10-31T02:38:04;7.40;;;3.30;;
34064;SDS011;20339;49.754;20.158;2022-10-31T02:40:47;6.20;;;2.20;;
34064;SDS011;20339;49.754;20.158;2022-10-31T02:43:24;8.80;;;3.00;;
34064;SDS011;20339;49.754;20.158;2022-10-31T02:46:01;6.90;;;2.40;;
34064;SDS011;20339;49.754;20.158;2022-10-31T02:48:37;12.30;;;3.20;;
34064;SDS011;20339;49.754;20.158;2022-10-31T02:51:12;8.20;;;2.30;;
34064;SDS011;20339;49.754;20.158;2022-10-31T02:53:44;6.90;;;2.50;;
34064;SDS011;20339;49.754;20.158;2022-10-31T02:56:16;8.10;;;2.80;;
34064;SDS011;20339;49.754;20.158;2022-10-31T02:58:49;7.70;;;2.60;;
34064;SDS011;20339;49.754;20.158;2022-10-31T03:01:33;7.40;;;2.90;;
34064;SDS011;20339;49.754;20.158;2022-10-31T03:07:28;5.50;;;2.60;;
34064;SDS011;20339;49.754;20.158;2022-10-31T03:10:06;8.30;;;3.00;;
34064;SDS011;20339;49.754;20.158;2022-10-31T03:12:47;7.20;;;2.80;;
34064;SDS011;20339;49.754;20.158;2022-10-31T03:15:30;6.30;;;2.60;;
34064;SDS011;20339;49.754;20.158;2022-10-31T03:18:06;9.60;;;3.50;;
34064;SDS011;20339;49.754;20.158;2022-10-31T03:20:41;6.40;;;2.80;;
34064;SDS011;20339;49.754;20.158;2022-10-31T03:23:16;5.30;;;2.10;;
34064;SDS011;20339;49.754;20.158;2022-10-31T03:25:51;9.90;;;3.10;;
34064;SDS011;20339;49.754;20.158;2022-10-31T03:28:26;8.20;;;2.90;;
34064;SDS011;20339;49.754;20.158;2022-10-31T03:31:01;9.00;;;2.90;;
34064;SDS011;20339;49.754;20.158;2022-10-31T03:33:35;7.60;;;2.70;;
34064;SDS011;20339;49.754;20.158;2022-10-31T03:36:08;6.50;;;2.90;;
34064;SDS011;20339;49.754;20.158;2022-10-31T03:38:43;6.30;;;2.90;;
34064;SDS011;20339;49.754;20.158;2022-10-31T03:41:19;6.30;;;2.50;;
34064;SDS011;20339;49.754;20.158;2022-10-31T03:43:54;7.60;;;2.80;;
34064;SDS011;20339;49.754;20.158;2022-10-31T03:46:29;6.70;;;2.20;;
34064;SDS011;20339;49.754;20.158;2022-10-31T03:49:00;5.50;;;2.40;;
34064;SDS011;20339;49.754;20.158;2022-10-31T03:51:33;7.50;;;2.70;;
34064;SDS011;20339;49.754;20.158;2022-10-31T03:54:13;8.50;;;3.10;;
34064;SDS011;20339;49.754;20.158;2022-10-31T03:59:25;7.60;;;2.50;;
34064;SDS011;20339;49.754;20.158;2022-10-31T04:02:04;8.30;;;2.10;;
34064;SDS011;20339;49.754;20.158;2022-10-31T04:04:40;6.80;;;2.10;;
34064;SDS011;20339;49.754;20.158;2022-10-31T04:07:13;8.50;;;2.50;;
34064;SDS011;20339;49.754;20.158;2022-10-31T04:09:45;6.10;;;2.40;;
34064;SDS011;20339;49.754;20.158;2022-10-31T04:12:19;6.70;;;2.50;;
34064;SDS011;20339;49.754;20.158;2022-10-31T04:14:53;6.50;;;2.20;;
34064;SDS011;20339;49.754;20.158;2022-10-31T04:17:27;5.60;;;2.40;;
34064;SDS011;20339;49.754;20.158;2022-10-31T04:20:02;10.70;;;2.30;;
34064;SDS011;20339;49.754;20.158;2022-10-31T04:22:35;7.40;;;3.10;;
34064;SDS011;20339;49.754;20.158;2022-10-31T04:25:08;8.80;;;2.40;;
34064;SDS011;20339;49.754;20.158;2022-10-31T04:27:39;5.90;;;2.20;;
34064;SDS011;20339;49.754;20.158;2022-10-31T04:30:11;5.40;;;2.50;;
34064;SDS011;20339;49.754;20.158;2022-10-31T04:32:42;4.50;;;2.30;;
34064;SDS011;20339;49.754;20.158;2022-10-31T04:35:14;6.80;;;2.80;;
34064;SDS011;20339;49.754;20.158;2022-10-31T04:37:45;7.50;;;2.50;;
34064;SDS011;20339;49.754;20.158;2022-10-31T04:40:16;5.90;;;2.10;;
34064;SDS011;20339;49.754;20.158;2022-10-31T04:42:47;6.50;;;2.40;;
34064;SDS011;20339;49.754;20.158;2022-10-31T04:45:18;5.30;;;2.40;;
34064;SDS011;20339;49.754;20.158;2022-10-31T04:47:50;8.50;;;2.40;;
34064;SDS011;20339;49.754;20.158;2022-10-31T04:50:21;6.20;;;2.60;;
34064;SDS011;20339;49.754;20.158;2022-10-31T04:52:52;6.40;;;2.20;;
34064;SDS011;20339;49.754;20.158;2022-10-31T04:55:23;7.10;;;2.30;;
34064;SDS011;20339;49.754;20.158;2022-10-31T04:57:54;9.80;;;2.40;;
34064;SDS011;20339;49.754;20.158;2022-10-31T05:00:26;11.60;;;2.60;;
34064;SDS011;20339;49.754;20.158;2022-10-31T05:02:57;3.60;;;2.10;;
34064;SDS011;20339;49.754;20.158;2022-10-31T05:05:30;9.00;;;2.10;;
34064;SDS011;20339;49.754;20.158;2022-10-31T05:08:02;8.80;;;2.30;;
34064;SDS011;20339;49.754;20.158;2022-10-31T05:10:33;9.10;;;2.40;;
34064;SDS011;20339;49.754;20.158;2022-10-31T05:13:07;6.90;;;2.40;;
34064;SDS011;20339;49.754;20.158;2022-10-31T05:15:39;7.10;;;2.30;;
34064;SDS011;20339;49.754;20.158;2022-10-31T05:18:10;6.60;;;2.20;;
34064;SDS011;20339;49.754;20.158;2022-10-31T05:20:41;6.50;;;2.60;;
34064;SDS011;20339;49.754;20.158;2022-10-31T05:23:15;7.50;;;2.80;;
34064;SDS011;20339;49.754;20.158;2022-10-31T05:25:47;8.80;;;2.70;;
34064;SDS011;20339;49.754;20.158;2022-10-31T05:28:18;7.30;;;2.70;;
34064;SDS011;20339;49.754;20.158;2022-10-31T05:30:51;8.30;;;2.40;;
34064;SDS011;20339;49.754;20.158;2022-10-31T05:33:23;6.30;;;2.30;;
34064;SDS011;20339;49.754;20.158;2022-10-31T05:35:54;7.20;;;2.70;;
34064;SDS011;20339;49.754;20.158;2022-10-31T05:38:25;11.30;;;3.00;;
34064;SDS011;20339;49.754;20.158;2022-10-31T05:40:58;7.60;;;2.50;;
34064;SDS011;20339;49.754;20.158;2022-10-31T05:43:30;9.40;;;2.40;;
34064;SDS011;20339;49.754;20.158;2022-10-31T05:46:04;8.20;;;2.80;;
34064;SDS011;20339;49.754;20.158;2022-10-31T05:48:36;8.40;;;2.30;;
34064;SDS011;20339;49.754;20.158;2022-10-31T05:51:07;7.70;;;2.30;;
34064;SDS011;20339;49.754;20.158;2022-10-31T05:53:39;7.40;;;2.20;;
34064;SDS011;20339;49.754;20.158;2022-10-31T05:56:10;7.60;;;2.80;;
34064;SDS011;20339;49.754;20.158;2022-10-31T05:58:41;5.60;;;2.60;;
34064;SDS011;20339;49.754;20.158;2022-10-31T06:01:13;6.60;;;2.70;;
34064;SDS011;20339;49.754;20.158;2022-10-31T06:03:44;6.70;;;2.20;;
34064;SDS011;20339;49.754;20.158;2022-10-31T06:06:15;9.90;;;2.70;;
34064;SDS011;20339;49.754;20.158;2022-10-31T06:08:46;7.10;;;2.60;;
34064;SDS011;20339;49.754;20.158;2022-10-31T06:11:17;7.20;;;2.50;;
34064;SDS011;20339;49.754;20.158;2022-10-31T06:13:48;12.10;;;3.30;;
34064;SDS011;20339;49.754;20.158;2022-10-31T06:16:19;6.70;;;2.20;;
34064;SDS011;20339;49.754;20.158;2022-10-31T06:18:51;8.40;;;2.80;;
34064;SDS011;20339;49.754;20.158;2022-10-31T06:21:22;7.50;;;2.00;;
34064;SDS011;20339;49.754;20.158;2022-10-31T06:23:53;7.00;;;3.10;;
34064;SDS011;20339;49.754;20.158;2022-10-31T06:26:24;7.90;;;2.00;;
34064;SDS011;20339;49.754;20.158;2022-10-31T06:28:56;6.60;;;1.90;;
34064;SDS011;20339;49.754;20.158;2022-10-31T06:31:27;8.50;;;2.40;;
34064;SDS011;20339;49.754;20.158;2022-10-31T06:33:58;5.70;;;2.30;;
34064;SDS011;20339;49.754;20.158;2022-10-31T06:36:30;7.10;;;2.80;;
34064;SDS011;20339;49.754;20.158;2022-10-31T06:39:01;7.10;;;2.70;;
34064;SDS011;20339;49.754;20.158;2022-10-31T06:41:32;8.40;;;2.70;;
34064;SDS011;20339;49.754;20.158;2022-10-31T06:44:05;6.90;;;2.50;;
34064;SDS011;20339;49.754;20.158;2022-10-31T06:46:37;6.90;;;2.90;;
34064;SDS011;20339;49.754;20.158;2022-10-31T06:49:08;7.60;;;2.80;;
34064;SDS011;20339;49.754;20.158;2022-10-31T06:51:39;9.30;;;2.40;;
34064;SDS011;20339;49.754;20.158;2022-10-31T06:54:11;6.70;;;2.50;;
34064;SDS011;20339;49.754;20.158;2022-10-31T07:08:17;6.70;;;2.20;;
34064;SDS011;20339;49.754;20.158;2022-10-31T07:10:52;7.90;;;2.50;;
34064;SDS011;20339;49.754;20.158;2022-10-31T07:13:24;10.70;;;2.80;;
34064;SDS011;20339;49.754;20.158;2022-10-31T07:15:59;9.50;;;2.70;;
34064;SDS011;20339;49.754;20.158;2022-10-31T07:18:33;9.60;;;3.40;;
34064;SDS011;20339;49.754;20.158;2022-10-31T07:21:06;5.80;;;2.50;;
34064;SDS011;20339;49.754;20.158;2022-10-31T07:23:37;8.60;;;2.80;;
34064;SDS011;20339;49.754;20.158;2022-10-31T07:26:09;6.90;;;2.40;;
34064;SDS011;20339;49.754;20.158;2022-10-31T07:28:40;9.00;;;3.10;;
34064;SDS011;20339;49.754;20.158;2022-10-31T07:31:12;10.40;;;2.60;;
34064;SDS011;20339;49.754;20.158;2022-10-31T07:33:43;9.60;;;2.70;;
34064;SDS011;20339;49.754;20.158;2022-10-31T07:36:14;6.60;;;2.60;;
34064;SDS011;20339;49.754;20.158;2022-10-31T07:38:45;6.00;;;2.20;;
34064;SDS011;20339;49.754;20.158;2022-10-31T07:41:18;8.10;;;2.50;;
34064;SDS011;20339;49.754;20.158;2022-10-31T07:43:49;5.60;;;2.50;;
34064;SDS011;20339;49.754;20.158;2022-10-31T07:46:21;10.20;;;2.30;;
34064;SDS011;20339;49.754;20.158;2022-10-31T07:48:52;8.30;;;2.30;;
34064;SDS011;20339;49.754;20.158;2022-10-31T07:51:23;9.20;;;2.70;;
34064;SDS011;20339;49.754;20.158;2022-10-31T07:53:54;8.40;;;2.60;;
34064;SDS011;20339;49.754;20.158;2022-10-31T07:56:25;7.60;;;2.70;;
34064;SDS011;20339;49.754;20.158;2022-10-31T07:58:57;5.10;;;2.70;;
34064;SDS011;20339;49.754;20.158;2022-10-31T08:01:34;10.70;;;2.90;;
34064;SDS011;20339;49.754;20.158;2022-10-31T08:04:06;9.30;;;3.30;;
34064;SDS011;20339;49.754;20.158;2022-10-31T08:06:37;7.70;;;2.60;;
34064;SDS011;20339;49.754;20.158;2022-10-31T08:09:08;11.30;;;3.00;;
34064;SDS011;20339;49.754;20.158;2022-10-31T08:11:39;8.30;;;2.70;;
34064;SDS011;20339;49.754;20.158;2022-10-31T08:14:12;5.20;;;2.40;;
34064;SDS011;20339;49.754;20.158;2022-10-31T08:16:43;6.20;;;2.60;;
34064;SDS011;20339;49.754;20.158;2022-10-31T08:19:14;4.70;;;2.40;;
34064;SDS011;20339;49.754;20.158;2022-10-31T08:21:46;12.20;;;2.80;;
34064;SDS011;20339;49.754;20.158;2022-10-31T08:24:19;7.90;;;2.10;;
34064;SDS011;20339;49.754;20.158;2022-10-31T08:26:50;7.80;;;2.70;;
34064;SDS011;20339;49.754;20.158;2022-10-31T08:29:22;6.90;;;2.70;;
34064;SDS011;20339;49.754;20.158;2022-10-31T08:31:53;8.50;;;2.60;;
34064;SDS011;20339;49.754;20.158;2022-10-31T08:34:26;7.50;;;2.60;;
34064;SDS011;20339;49.754;20.158;2022-10-31T08:36:59;12.70;;;3.40;;
34064;SDS011;20339;49.754;20.158;2022-10-31T08:39:33;6.50;;;2.70;;
34064;SDS011;20339;49.754;20.158;2022-10-31T08:42:05;8.80;;;2.90;;
34064;SDS011;20339;49.754;20.158;2022-10-31T08:44:36;11.90;;;3.40;;
34064;SDS011;20339;49.754;20.158;2022-10-31T08:47:07;8.30;;;2.90;;
34064;SDS011;20339;49.754;20.158;2022-10-31T08:49:40;6.20;;;2.50;;
34064;SDS011;20339;49.754;20.158;2022-10-31T08:52:11;9.20;;;3.00;;
34064;SDS011;20339;49.754;20.158;2022-10-31T08:54:43;7.50;;;2.20;;
34064;SDS011;20339;49.754;20.158;2022-10-31T08:57:14;10.30;;;2.60;;
34064;SDS011;20339;49.754;20.158;2022-10-31T08:59:46;6.30;;;2.10;;
34064;SDS011;20339;49.754;20.158;2022-10-31T09:02:17;6.90;;;2.50;;
34064;SDS011;20339;49.754;20.158;2022-10-31T09:04:50;10.50;;;2.60;;
34064;SDS011;20339;49.754;20.158;2022-10-31T09:07:23;9.20;;;2.80;;
34064;SDS011;20339;49.754;20.158;2022-10-31T09:09:55;10.80;;;3.10;;
34064;SDS011;20339;49.754;20.158;2022-10-31T09:12:26;6.50;;;2.60;;
34064;SDS011;20339;49.754;20.158;2022-10-31T09:14:58;8.00;;;2.60;;
34064;SDS011;20339;49.754;20.158;2022-10-31T09:17:30;8.10;;;2.50;;
34064;SDS011;20339;49.754;20.158;2022-10-31T09:20:02;7.60;;;2.70;;
34064;SDS011;20339;49.754;20.158;2022-10-31T09:22:34;9.90;;;3.60;;
34064;SDS011;20339;49.754;20.158;2022-10-31T09:25:05;10.60;;;2.90;;
34064;SDS011;20339;49.754;20.158;2022-10-31T09:27:37;10.50;;;3.40;;
34064;SDS011;20339;49.754;20.158;2022-10-31T09:30:09;10.80;;;3.30;;
34064;SDS011;20339;49.754;20.158;2022-10-31T09:32:42;10.10;;;3.70;;
34064;SDS011;20339;49.754;20.158;2022-10-31T09:35:15;10.20;;;3.30;;
34064;SDS011;20339;49.754;20.158;2022-10-31T09:37:46;10.60;;;3.30;;
34064;SDS011;20339;49.754;20.158;2022-10-31T09:40:22;10.70;;;4.60;;
34064;SDS011;20339;49.754;20.158;2022-10-31T09:43:02;13.10;;;6.50;;
34064;SDS011;20339;49.754;20.158;2022-10-31T09:45:44;13.90;;;5.30;;
34064;SDS011;20339;49.754;20.158;2022-10-31T09:48:40;11.00;;;3.40;;
34064;SDS011;20339;49.754;20.158;2022-10-31T09:51:25;9.60;;;3.00;;
34064;SDS011;20339;49.754;20.158;2022-10-31T09:56:36;8.40;;;2.60;;
34064;SDS011;20339;49.754;20.158;2022-10-31T09:59:11;9.60;;;3.10;;
34064;SDS011;20339;49.754;20.158;2022-10-31T10:01:49;10.00;;;3.10;;
34064;SDS011;20339;49.754;20.158;2022-10-31T10:04:30;9.10;;;3.30;;
34064;SDS011;20339;49.754;20.158;2022-10-31T10:07:10;11.40;;;3.10;;
34064;SDS011;20339;49.754;20.158;2022-10-31T10:09:48;7.60;;;3.40;;
34064;SDS011;20339;49.754;20.158;2022-10-31T10:12:23;11.30;;;3.90;;
34064;SDS011;20339;49.754;20.158;2022-10-31T10:15:18;9.80;;;3.40;;
34064;SDS011;20339;49.754;20.158;2022-10-31T10:18:02;9.50;;;3.20;;
34064;SDS011;20339;49.754;20.158;2022-10-31T10:20:42;10.00;;;3.40;;
34064;SDS011;20339;49.754;20.158;2022-10-31T10:23:31;10.30;;;3.40;;
34064;SDS011;20339;49.754;20.158;2022-10-31T10:26:13;15.10;;;3.70;;
34064;SDS011;20339;49.754;20.158;2022-10-31T10:28:48;9.60;;;3.70;;
34064;SDS011;20339;49.754;20.158;2022-10-31T10:31:24;8.40;;;3.50;;
34064;SDS011;20339;49.754;20.158;2022-10-31T10:34:03;14.40;;;4.80;;
34064;SDS011;20339;49.754;20.158;2022-10-31T10:36:47;11.40;;;4.10;;
34064;SDS011;20339;49.754;20.158;2022-10-31T10:39:24;10.70;;;4.20;;
34064;SDS011;20339;49.754;20.158;2022-10-31T10:41:59;12.10;;;4.10;;
34064;SDS011;20339;49.754;20.158;2022-10-31T10:44:55;11.80;;;4.80;;
34064;SDS011;20339;49.754;20.158;2022-10-31T10:47:51;8.40;;;4.20;;
34064;SDS011;20339;49.754;20.158;2022-10-31T10:50:31;14.40;;;5.30;;
34064;SDS011;20339;49.754;20.158;2022-10-31T10:53:12;15.40;;;6.50;;
34064;SDS011;20339;49.754;20.158;2022-10-31T10:56:02;14.10;;;5.30;;
34064;SDS011;20339;49.754;20.158;2022-10-31T10:58:45;14.40;;;5.50;;
34064;SDS011;20339;49.754;20.158;2022-10-31T11:01:17;10.20;;;4.70;;
34064;SDS011;20339;49.754;20.158;2022-10-31T11:03:48;15.80;;;5.60;;
34064;SDS011;20339;49.754;20.158;2022-10-31T11:06:21;14.30;;;5.20;;
34064;SDS011;20339;49.754;20.158;2022-10-31T11:08:54;16.50;;;6.20;;
34064;SDS011;20339;49.754;20.158;2022-10-31T11:11:26;13.60;;;5.80;;
34064;SDS011;20339;49.754;20.158;2022-10-31T11:14:02;15.80;;;8.00;;
34064;SDS011;20339;49.754;20.158;2022-10-31T11:16:35;17.50;;;8.00;;
34064;SDS011;20339;49.754;20.158;2022-10-31T11:19:12;14.60;;;7.60;;
34064;SDS011;20339;49.754;20.158;2022-10-31T11:21:47;15.10;;;6.90;;
34064;SDS011;20339;49.754;20.158;2022-10-31T11:24:19;16.30;;;6.10;;
34064;SDS011;20339;49.754;20.158;2022-10-31T11:27:05;20.20;;;5.80;;
34064;SDS011;20339;49.754;20.158;2022-10-31T11:29:44;11.90;;;5.30;;
34064;SDS011;20339;49.754;20.158;2022-10-31T11:32:18;17.30;;;5.60;;
34064;SDS011;20339;49.754;20.158;2022-10-31T11:34:52;14.30;;;5.70;;
34064;SDS011;20339;49.754;20.158;2022-10-31T11:37:26;15.00;;;6.00;;
34064;SDS011;20339;49.754;20.158;2022-10-31T11:40:05;16.20;;;7.10;;
34064;SDS011;20339;49.754;20.158;2022-10-31T11:42:45;13.90;;;6.20;;
34064;SDS011;20339;49.754;20.158;2022-10-31T11:45:19;16.00;;;6.10;;
34064;SDS011;20339;49.754;20.158;2022-10-31T11:48:14;18.30;;;6.90;;
34064;SDS011;20339;49.754;20.158;2022-10-31T11:50:51;18.00;;;8.40;;
34064;SDS011;20339;49.754;20.158;2022-10-31T11:53:26;35.40;;;19.00;;
34064;SDS011;20339;49.754;20.158;2022-10-31T11:56:09;35.90;;;14.40;;
34064;SDS011;20339;49.754;20.158;2022-10-31T11:58:54;54.40;;;34.20;;
34064;SDS011;20339;49.754;20.158;2022-10-31T12:01:27;84.20;;;44.60;;
34064;SDS011;20339;49.754;20.158;2022-10-31T12:04:04;31.50;;;15.10;;
34064;SDS011;20339;49.754;20.158;2022-10-31T12:06:38;43.30;;;22.90;;
34064;SDS011;20339;49.754;20.158;2022-10-31T12:09:20;52.40;;;25.80;;
34064;SDS011;20339;49.754;20.158;2022-10-31T12:12:02;23.30;;;10.90;;
34064;SDS011;20339;49.754;20.158;2022-10-31T12:15:02;25.00;;;13.70;;
34064;SDS011;20339;49.754;20.158;2022-10-31T12:17:44;27.80;;;19.70;;
34064;SDS011;20339;49.754;20.158;2022-10-31T12:20:23;15.10;;;8.90;;
34064;SDS011;20339;49.754;20.158;2022-10-31T12:23:06;15.40;;;6.30;;
34064;SDS011;20339;49.754;20.158;2022-10-31T12:25:47;16.30;;;6.50;;
34064;SDS011;20339;49.754;20.158;2022-10-31T12:28:30;11.50;;;5.00;;
34064;SDS011;20339;49.754;20.158;2022-10-31T12:31:16;15.90;;;5.70;;
34064;SDS011;20339;49.754;20.158;2022-10-31T12:34:01;14.30;;;4.70;;
34064;SDS011;20339;49.754;20.158;2022-10-31T12:36:50;12.20;;;4.70;;
34064;SDS011;20339;49.754;20.158;2022-10-31T12:39:32;16.30;;;6.20;;
34064;SDS011;20339;49.754;20.158;2022-10-31T12:42:12;13.40;;;5.00;;
34064;SDS011;20339;49.754;20.158;2022-10-31T12:45:04;13.80;;;4.70;;
34064;SDS011;20339;49.754;20.158;2022-10-31T12:47:51;12.50;;;4.70;;
34064;SDS011;20339;49.754;20.158;2022-10-31T12:50:39;17.70;;;6.20;;
34064;SDS011;20339;49.754;20.158;2022-10-31T12:53:26;11.30;;;4.90;;
34064;SDS011;20339;49.754;20.158;2022-10-31T12:56:14;13.40;;;5.30;;
34064;SDS011;20339;49.754;20.158;2022-10-31T12:58:56;11.60;;;5.00;;
34064;SDS011;20339;49.754;20.158;2022-10-31T13:01:32;12.90;;;4.70;;
34064;SDS011;20339;49.754;20.158;2022-10-31T13:04:12;13.60;;;4.60;;
34064;SDS011;20339;49.754;20.158;2022-10-31T13:06:49;10.70;;;4.70;;
34064;SDS011;20339;49.754;20.158;2022-10-31T13:09:27;10.90;;;4.50;;
34064;SDS011;20339;49.754;20.158;2022-10-31T13:12:04;10.10;;;4.40;;
34064;SDS011;20339;49.754;20.158;2022-10-31T13:14:40;12.20;;;4.40;;
34064;SDS011;20339;49.754;20.158;2022-10-31T13:17:18;14.20;;;5.60;;
34064;SDS011;20339;49.754;20.158;2022-10-31T13:20:00;11.80;;;5.00;;
34064;SDS011;20339;49.754;20.158;2022-10-31T13:22:43;11.60;;;5.50;;
34064;SDS011;20339;49.754;20.158;2022-10-31T13:25:19;14.60;;;5.80;;
34064;SDS011;20339;49.754;20.158;2022-10-31T13:27:55;12.10;;;5.70;;
34064;SDS011;20339;49.754;20.158;2022-10-31T13:30:29;14.10;;;6.10;;
34064;SDS011;20339;49.754;20.158;2022-10-31T13:33:10;12.60;;;6.20;;
34064;SDS011;20339;49.754;20.158;2022-10-31T13:35:46;10.80;;;6.00;;
34064;SDS011;20339;49.754;20.158;2022-10-31T13:38:21;12.30;;;5.90;;
34064;SDS011;20339;49.754;20.158;2022-10-31T13:40:59;16.20;;;6.30;;
34064;SDS011;20339;49.754;20.158;2022-10-31T13:43:38;12.20;;;5.20;;
34064;SDS011;20339;49.754;20.158;2022-10-31T13:46:36;13.60;;;5.30;;
34064;SDS011;20339;49.754;20.158;2022-10-31T13:52:15;22.60;;;10.30;;
34064;SDS011;20339;49.754;20.158;2022-10-31T13:54:57;15.70;;;5.90;;
34064;SDS011;20339;49.754;20.158;2022-10-31T13:57:31;18.00;;;7.50;;
34064;SDS011;20339;49.754;20.158;2022-10-31T14:00:21;14.30;;;6.10;;
34064;SDS011;20339;49.754;20.158;2022-10-31T14:02:56;14.10;;;6.10;;
34064;SDS011;20339;49.754;20.158;2022-10-31T14:05:29;12.80;;;5.30;;
34064;SDS011;20339;49.754;20.158;2022-10-31T14:08:02;12.10;;;5.30;;
34064;SDS011;20339;49.754;20.158;2022-10-31T14:10:47;16.10;;;6.70;;
34064;SDS011;20339;49.754;20.158;2022-10-31T14:13:21;11.60;;;5.50;;
34064;SDS011;20339;49.754;20.158;2022-10-31T14:15:58;14.50;;;5.80;;
34064;SDS011;20339;49.754;20.158;2022-10-31T14:18:31;19.10;;;6.90;;
34064;SDS011;20339;49.754;20.158;2022-10-31T14:21:14;15.70;;;6.10;;
34064;SDS011;20339;49.754;20.158;2022-10-31T14:23:56;13.40;;;5.80;;
34064;SDS011;20339;49.754;20.158;2022-10-31T14:26:32;13.60;;;5.80;;
34064;SDS011;20339;49.754;20.158;2022-10-31T14:29:24;14.50;;;6.20;;
34064;SDS011;20339;49.754;20.158;2022-10-31T14:31:58;13.20;;;6.00;;
34064;SDS011;20339;49.754;20.158;2022-10-31T14:34:39;16.80;;;6.60;;
34064;SDS011;20339;49.754;20.158;2022-10-31T14:37:38;10.40;;;5.60;;
34064;SDS011;20339;49.754;20.158;2022-10-31T14:40:26;18.10;;;6.60;;
34064;SDS011;20339;49.754;20.158;2022-10-31T14:46:00;13.40;;;5.60;;
34064;SDS011;20339;49.754;20.158;2022-10-31T14:51:33;13.60;;;5.20;;
34064;SDS011;20339;49.754;20.158;2022-10-31T14:54:11;14.60;;;5.50;;
34064;SDS011;20339;49.754;20.158;2022-10-31T14:56:48;15.10;;;5.80;;
34064;SDS011;20339;49.754;20.158;2022-10-31T14:59:23;15.80;;;5.70;;
34064;SDS011;20339;49.754;20.158;2022-10-31T15:01:59;15.20;;;5.70;;
34064;SDS011;20339;49.754;20.158;2022-10-31T15:09:42;14.40;;;5.00;;
34064;SDS011;20339;49.754;20.158;2022-10-31T15:12:25;12.70;;;5.10;;
34064;SDS011;20339;49.754;20.158;2022-10-31T15:15:09;11.70;;;5.00;;
34064;SDS011;20339;49.754;20.158;2022-10-31T15:17:43;11.10;;;5.00;;
34064;SDS011;20339;49.754;20.158;2022-10-31T15:20:19;17.10;;;5.40;;
34064;SDS011;20339;49.754;20.158;2022-10-31T15:22:53;11.90;;;5.20;;
34064;SDS011;20339;49.754;20.158;2022-10-31T15:25:27;12.20;;;5.40;;
34064;SDS011;20339;49.754;20.158;2022-10-31T15:28:12;12.60;;;5.40;;
34064;SDS011;20339;49.754;20.158;2022-10-31T15:30:51;12.20;;;5.40;;
34064;SDS011;20339;49.754;20.158;2022-10-31T15:33:27;12.00;;;5.80;;
34064;SDS011;20339;49.754;20.158;2022-10-31T15:36:00;13.00;;;5.30;;
34064;SDS011;20339;49.754;20.158;2022-10-31T15:38:32;11.30;;;5.60;;
34064;SDS011;20339;49.754;20.158;2022-10-31T15:41:04;11.60;;;5.20;;
34064;SDS011;20339;49.754;20.158;2022-10-31T15:43:50;12.10;;;5.30;;
34064;SDS011;20339;49.754;20.158;2022-10-31T15:46:24;11.30;;;5.00;;
34064;SDS011;20339;49.754;20.158;2022-10-31T15:48:56;14.60;;;5.10;;
34064;SDS011;20339;49.754;20.158;2022-10-31T15:51:32;12.10;;;5.00;;
34064;SDS011;20339;49.754;20.158;2022-10-31T15:54:10;11.40;;;5.40;;